createdAt,value
2023-04-17T00:01:45.221Z,98294.42
2023-04-17T00:04:13.626Z,98292.68
2023-04-17T00:06:45.532Z,98296.80
2023-04-17T00:09:14.460Z,98289.22
2023-04-17T00:11:42.844Z,98287.92
2023-04-17T00:14:11.080Z,98291.18
2023-04-17T00:16:39.662Z,98289.39
2023-04-17T00:19:08.124Z,98288.52
2023-04-17T00:21:41.766Z,98290.56
2023-04-17T00:24:09.958Z,98283.42
2023-04-17T00:26:38.224Z,98281.91
2023-04-17T00:29:06.501Z,98277.55
2023-04-17T00:31:35.676Z,98280.30
2023-04-17T00:34:04.108Z,98281.09
2023-04-17T00:36:32.530Z,98279.77
2023-04-17T00:39:00.793Z,98279.25
2023-04-17T00:41:29.113Z,98281.05
2023-04-17T00:43:57.351Z,98284.87
2023-04-17T00:46:25.815Z,98282.00
2023-04-17T00:48:54.498Z,98281.96
2023-04-17T00:51:22.930Z,98276.58
2023-04-17T00:53:52.365Z,98278.72
2023-04-17T00:56:21.433Z,98281.92
2023-04-17T00:58:49.920Z,98283.96
2023-04-17T01:01:18.257Z,98280.80
2023-04-17T01:03:46.826Z,98277.30
2023-04-17T01:06:15.272Z,98277.36
2023-04-17T01:08:43.881Z,98276.83
2023-04-17T01:11:12.501Z,98273.05
2023-04-17T01:13:59.182Z,98270.05
2023-04-17T01:16:30.566Z,98265.66
2023-04-17T01:18:58.688Z,98263.95
2023-04-17T01:21:27.766Z,98264.59
2023-04-17T01:23:55.962Z,98264.09
2023-04-17T01:26:31.496Z,98261.52
2023-04-17T01:28:59.869Z,98260.77
2023-04-17T01:31:29.456Z,98263.65
2023-04-17T01:33:57.742Z,98264.64
2023-04-17T01:36:25.986Z,98261.35
2023-04-17T01:38:54.122Z,98257.71
2023-04-17T01:41:22.485Z,98259.85
2023-04-17T01:43:50.870Z,98259.03
2023-04-17T01:46:19.460Z,98255.83
2023-04-17T01:48:47.607Z,98251.56
2023-04-17T01:51:15.988Z,98253.40
2023-04-17T01:53:49.024Z,98249.89
2023-04-17T01:56:19.918Z,98254.30
2023-04-17T01:58:48.049Z,98256.65
2023-04-17T02:01:16.631Z,98257.05
2023-04-17T02:03:49.710Z,98254.23
2023-04-17T02:06:18.054Z,98251.73
2023-04-17T02:08:49.055Z,98252.45
2023-04-17T02:11:17.420Z,98250.60
2023-04-17T02:13:45.787Z,98252.39
2023-04-17T02:16:14.053Z,98253.71
2023-04-17T02:18:43.330Z,98255.31
2023-04-17T02:21:11.595Z,98254.63
2023-04-17T02:23:39.893Z,98258.93
2023-04-17T02:26:08.564Z,98261.64
2023-04-17T02:28:37.261Z,98262.12
2023-04-17T02:31:07.672Z,98255.33
2023-04-17T02:33:39.265Z,98250.34
2023-04-17T02:36:08.047Z,98258.06
2023-04-17T02:38:39.824Z,98260.45
2023-04-17T02:41:10.784Z,98264.71
2023-04-17T02:43:39.436Z,98263.52
2023-04-17T02:46:11.570Z,98268.59
2023-04-17T02:48:39.880Z,98266.11
2023-04-17T02:51:08.090Z,98266.43
2023-04-17T02:53:36.430Z,98268.56
2023-04-17T02:56:04.959Z,98268.40
2023-04-17T02:58:34.491Z,98268.31
2023-04-17T03:01:03.314Z,98270.88
2023-04-17T03:03:35.583Z,98269.03
2023-04-17T03:06:06.984Z,98266.23
2023-04-17T03:08:38.789Z,98264.80
2023-04-17T03:11:07.680Z,98269.77
2023-04-17T03:13:38.983Z,98266.67
2023-04-17T03:16:07.421Z,98263.66
2023-04-17T03:20:51.462Z,98264.66
2023-04-17T03:23:21.053Z,98269.14
2023-04-17T03:25:50.014Z,98271.76
2023-04-17T03:28:18.881Z,98270.02
2023-04-17T03:30:47.166Z,98271.35
2023-04-17T03:33:16.540Z,98267.10
2023-04-17T03:35:46.359Z,98269.88
2023-04-17T03:38:14.911Z,98278.27
2023-04-17T03:40:43.333Z,98274.91
2023-04-17T03:43:11.721Z,98278.23
2023-04-17T03:45:39.941Z,98276.05
2023-04-17T03:48:08.294Z,98276.15
2023-04-17T03:50:37.105Z,98273.65
2023-04-17T03:53:05.485Z,98278.38
2023-04-17T03:55:34.049Z,98280.58
2023-04-17T03:58:02.222Z,98283.98
2023-04-17T04:00:31.957Z,98281.58
2023-04-17T04:03:02.477Z,98289.06
2023-04-17T04:05:38.465Z,98285.34
2023-04-17T04:08:08.080Z,98289.02
2023-04-17T04:10:44.393Z,98289.73
2023-04-17T04:13:13.107Z,98286.77
2023-04-17T04:15:43.383Z,98289.02
2023-04-17T04:18:13.440Z,98292.11
2023-04-17T04:20:41.821Z,98290.55
2023-04-17T04:23:21.392Z,98293.40
2023-04-17T04:25:49.895Z,98295.02
2023-04-17T04:28:28.363Z,98294.41
2023-04-17T04:30:58.967Z,98297.69
2023-04-17T04:33:30.632Z,98293.20
2023-04-17T04:36:01.526Z,98299.73
2023-04-17T04:38:33.615Z,98301.43
2023-04-17T04:41:10.624Z,98304.66
2023-04-17T04:43:40.126Z,98303.97
2023-04-17T04:46:10.785Z,98309.17
2023-04-17T04:48:42.962Z,98313.52
2023-04-17T04:51:11.852Z,98310.38
2023-04-17T04:53:40.506Z,98313.63
2023-04-17T04:56:09.095Z,98312.20
2023-04-17T04:58:44.467Z,98319.81
2023-04-17T05:01:13.428Z,98316.42
2023-04-17T05:03:45.567Z,98314.77
2023-04-17T05:06:17.480Z,98314.34
2023-04-17T05:08:52.144Z,98316.52
2023-04-17T05:11:20.560Z,98320.00
2023-04-17T05:13:51.148Z,98323.19
2023-04-17T05:16:27.779Z,98319.70
2023-04-17T05:18:56.385Z,98320.55
2023-04-17T05:21:36.077Z,98321.96
2023-04-17T05:24:04.340Z,98324.95
2023-04-17T05:26:32.801Z,98328.88
2023-04-17T05:29:01.433Z,98320.48
2023-04-17T05:31:31.894Z,98326.40
2023-04-17T05:34:00.816Z,98323.88
2023-04-17T05:36:31.791Z,98326.60
2023-04-17T05:39:00.917Z,98328.94
2023-04-17T05:41:31.476Z,98327.86
2023-04-17T05:43:59.851Z,98329.43
2023-04-17T05:46:29.746Z,98330.52
2023-04-17T05:48:57.875Z,98332.94
2023-04-17T05:51:26.737Z,98334.42
2023-04-17T05:53:55.094Z,98332.31
2023-04-17T05:56:23.535Z,98334.80
2023-04-17T05:58:52.010Z,98338.11
2023-04-17T06:01:22.736Z,98338.27
2023-04-17T06:03:53.579Z,98341.84
2023-04-17T06:06:25.038Z,98337.71
2023-04-17T06:08:54.675Z,98341.05
2023-04-17T06:11:24.536Z,98342.48
2023-04-17T06:13:53.843Z,98341.84
2023-04-17T06:16:22.359Z,98346.27
2023-04-17T06:18:50.856Z,98347.36
2023-04-17T06:21:19.488Z,98350.13
2023-04-17T06:23:47.894Z,98353.50
2023-04-17T06:26:18.154Z,98355.15
2023-04-17T06:28:46.467Z,98355.48
2023-04-17T06:31:17.761Z,98359.52
2023-04-17T06:33:47.927Z,98364.27
2023-04-17T06:36:18.750Z,98358.50
2023-04-17T06:38:49.898Z,98363.04
2023-04-17T06:41:19.542Z,98364.94
2023-04-17T06:43:50.963Z,98365.56
2023-04-17T06:46:22.814Z,98368.40
2023-04-17T06:48:58.089Z,98369.45
2023-04-17T06:51:27.766Z,98374.67
2023-04-17T06:53:56.145Z,98378.40
2023-04-17T06:56:25.258Z,98385.64
2023-04-17T06:58:53.942Z,98385.39
2023-04-17T07:01:28.515Z,98388.15
2023-04-17T07:03:57.452Z,98385.97
2023-04-17T07:06:28.798Z,98385.73
2023-04-17T07:08:57.401Z,98389.19
2023-04-17T07:11:25.726Z,98389.83
2023-04-17T07:13:54.413Z,98389.94
2023-04-17T07:16:23.198Z,98386.23
2023-04-17T07:18:52.036Z,98389.57
2023-04-17T07:21:27.077Z,98390.95
2023-04-17T07:23:56.960Z,98391.21
2023-04-17T07:26:34.991Z,98393.22
2023-04-17T07:29:06.901Z,98396.92
2023-04-17T07:31:39.400Z,98399.64
2023-04-17T07:34:09.336Z,98397.76
2023-04-17T07:36:37.912Z,98398.58
2023-04-17T07:39:08.287Z,98401.86
2023-04-17T07:41:36.873Z,98404.14
2023-04-17T07:44:07.689Z,98400.00
2023-04-17T07:46:40.106Z,98407.56
2023-04-17T07:49:12.199Z,98407.73
2023-04-17T07:51:41.417Z,98409.70
2023-04-17T07:54:09.955Z,98410.61
2023-04-17T07:56:39.886Z,98410.88
2023-04-17T07:59:10.129Z,98415.14
2023-04-17T08:01:41.256Z,98413.31
2023-04-17T08:04:10.622Z,98415.42
2023-04-17T08:06:39.727Z,98414.02
2023-04-17T08:09:09.885Z,98415.10
2023-04-17T08:11:56.464Z,98413.17
2023-04-17T08:14:29.666Z,98414.25
2023-04-17T08:16:59.482Z,98417.78
2023-04-17T08:19:27.717Z,98423.55
2023-04-17T08:22:03.795Z,98419.50
2023-04-17T08:24:32.243Z,98424.70
2023-04-17T08:27:02.636Z,98427.23
2023-04-17T08:29:32.872Z,98427.70
2023-04-17T08:32:13.883Z,98430.27
2023-04-17T08:34:44.291Z,98429.23
2023-04-17T08:37:13.220Z,98433.16
2023-04-17T08:39:44.307Z,98431.74
2023-04-17T08:42:18.721Z,98432.74
2023-04-17T08:44:51.060Z,98432.04
2023-04-17T08:47:21.137Z,98438.80
2023-04-17T08:49:50.801Z,98436.60
2023-04-17T08:52:20.623Z,98437.99
2023-04-17T08:54:51.296Z,98441.20
2023-04-17T08:57:20.595Z,98443.88
2023-04-17T08:59:50.830Z,98449.19
2023-04-17T09:02:21.038Z,98446.46
2023-04-17T09:04:54.234Z,98446.90
2023-04-17T09:07:29.800Z,98446.18
2023-04-17T09:09:58.215Z,98444.70
2023-04-17T09:12:27.615Z,98446.24
2023-04-17T09:14:58.674Z,98442.17
2023-04-17T09:17:34.155Z,98442.55
2023-04-17T09:21:50.506Z,98443.38
2023-04-17T09:24:39.953Z,98445.33
2023-04-17T09:28:04.241Z,98443.23
2023-04-17T09:30:41.719Z,98443.46
2023-04-17T09:33:19.209Z,98437.45
2023-04-17T09:35:49.635Z,98438.58
2023-04-17T09:38:55.565Z,98437.79
2023-04-17T09:41:29.115Z,98437.46
2023-04-17T09:44:03.727Z,98436.48
2023-04-17T09:46:44.128Z,98433.87
2023-04-17T09:49:40.041Z,98429.70
2023-04-17T09:52:12.649Z,98431.50
2023-04-17T09:54:43.826Z,98432.20
2023-04-17T10:00:07.142Z,98435.29
2023-04-17T10:02:38.905Z,98435.34
2023-04-17T10:05:13.999Z,98437.63
2023-04-17T10:07:45.024Z,98438.60
2023-04-17T10:10:34.219Z,98435.87
2023-04-17T10:15:51.022Z,98438.34
2023-04-17T10:18:25.213Z,98438.70
2023-04-17T10:20:54.197Z,98439.23
2023-04-17T10:23:31.410Z,98438.33
2023-04-17T10:26:25.075Z,98439.75
2023-04-17T10:28:54.456Z,98443.95
2023-04-17T10:31:25.832Z,98440.61
2023-04-17T10:33:54.579Z,98436.16
2023-04-17T10:36:38.353Z,98438.42
2023-04-17T10:39:13.919Z,98434.99
2023-04-17T10:42:05.929Z,98435.22
2023-04-17T10:44:36.642Z,98434.86
2023-04-17T10:47:09.796Z,98433.27
2023-04-17T10:49:56.360Z,98435.30
2023-04-17T10:52:39.862Z,98434.50
2023-04-17T10:55:13.758Z,98432.25
2023-04-17T10:58:03.191Z,98437.04
2023-04-17T11:00:54.625Z,98440.98
2023-04-17T11:03:23.833Z,98447.63
2023-04-17T11:05:53.952Z,98446.52
2023-04-17T11:08:25.757Z,98445.30
2023-04-17T11:10:56.272Z,98441.20
2023-04-17T11:13:24.774Z,98442.34
2023-04-17T11:15:53.627Z,98435.55
2023-04-17T11:18:23.247Z,98434.80
2023-04-17T11:20:51.952Z,98435.39
2023-04-17T11:23:20.499Z,98436.14
2023-04-17T11:25:48.695Z,98440.02
2023-04-17T11:28:17.661Z,98434.47
2023-04-17T11:30:46.592Z,98434.05
2023-04-17T11:33:16.151Z,98429.66
2023-04-17T11:35:44.419Z,98435.27
2023-04-17T11:38:12.672Z,98438.88
2023-04-17T11:40:46.175Z,98435.09
2023-04-17T11:43:14.823Z,98438.35
2023-04-17T11:45:44.447Z,98435.81
2023-04-17T11:48:15.597Z,98437.14
2023-04-17T11:50:44.314Z,98438.98
2023-04-17T11:53:14.934Z,98439.71
2023-04-17T11:55:44.605Z,98442.23
2023-04-17T11:58:13.450Z,98434.17
2023-04-17T12:00:41.604Z,98434.23
2023-04-17T12:03:35.520Z,98436.75
2023-04-17T12:06:05.450Z,98442.89
2023-04-17T12:08:47.225Z,98437.52
2023-04-17T12:11:36.417Z,98438.27
2023-04-17T12:14:11.912Z,98439.56
2023-04-17T12:16:40.749Z,98437.03
2023-04-17T12:19:10.801Z,98435.89
2023-04-17T12:21:41.474Z,98433.48
2023-04-17T12:24:14.906Z,98434.20
2023-04-17T12:26:49.155Z,98434.92
2023-04-17T12:29:36.221Z,98431.38
2023-04-17T12:32:11.998Z,98431.65
2023-04-17T12:34:40.738Z,98431.71
2023-04-17T12:37:09.318Z,98436.39
2023-04-17T12:39:37.696Z,98435.25
2023-04-17T12:43:23.964Z,98435.59
2023-04-17T12:45:58.641Z,98432.64
2023-04-17T12:48:31.420Z,98436.30
2023-04-17T12:51:06.124Z,98438.39
2023-04-17T12:53:38.645Z,98433.67
2023-04-17T12:56:12.581Z,98434.48
2023-04-17T12:58:41.039Z,98433.90
2023-04-17T13:01:14.536Z,98431.36
2023-04-17T13:03:43.212Z,98435.62
2023-04-17T13:06:17.657Z,98432.48
2023-04-17T13:08:46.179Z,98435.89
2023-04-17T13:11:15.415Z,98432.84
2023-04-17T13:13:45.812Z,98434.84
2023-04-17T13:16:14.185Z,98435.88
2023-04-17T13:18:42.446Z,98436.58
2023-04-17T13:21:10.667Z,98438.13
2023-04-17T13:23:39.051Z,98435.85
2023-04-17T13:26:07.298Z,98436.46
2023-04-17T13:28:35.700Z,98437.86
2023-04-17T13:31:03.865Z,98441.03
2023-04-17T13:33:32.832Z,98439.06
2023-04-17T13:36:01.045Z,98439.16
2023-04-17T13:38:49.498Z,98436.95
2023-04-17T13:41:18.048Z,98440.69
2023-04-17T13:43:46.290Z,98439.86
2023-04-17T13:46:16.426Z,98445.08
2023-04-17T13:48:45.794Z,98444.22
2023-04-17T13:51:16.004Z,98446.98
2023-04-17T13:53:44.869Z,98444.91
2023-04-17T13:56:14.543Z,98445.02
2023-04-17T13:58:44.822Z,98447.52
2023-04-17T14:01:14.214Z,98450.33
2023-04-17T14:03:50.402Z,98445.73
2023-04-17T14:06:22.165Z,98447.45
2023-04-17T14:08:55.692Z,98448.05
2023-04-17T14:11:25.249Z,98448.27
2023-04-17T14:13:57.055Z,98450.83
2023-04-17T14:16:25.433Z,98451.55
2023-04-17T14:18:55.128Z,98454.00
2023-04-17T14:21:25.163Z,98454.71
2023-04-17T14:23:58.817Z,98453.10
2023-04-17T14:26:27.587Z,98456.08
2023-04-17T14:29:01.185Z,98455.42
2023-04-17T14:31:35.422Z,98455.73
2023-04-17T14:34:03.705Z,98454.56
2023-04-17T14:36:32.058Z,98458.66
2023-04-17T14:39:00.683Z,98455.95
2023-04-17T14:41:31.864Z,98456.80
2023-04-17T14:44:02.563Z,98457.26
2023-04-17T14:46:36.424Z,98457.80
2023-04-17T14:49:04.613Z,98459.92
2023-04-17T14:51:33.372Z,98459.94
2023-04-17T14:54:01.673Z,98459.83
2023-04-17T14:56:32.017Z,98458.07
2023-04-17T14:59:06.977Z,98454.98
2023-04-17T15:01:36.608Z,98456.31
2023-04-17T15:04:07.201Z,98456.11
2023-04-17T15:06:36.541Z,98457.83
2023-04-17T15:09:06.389Z,98456.88
2023-04-17T15:11:34.635Z,98458.66
2023-04-17T15:14:05.123Z,98459.98
2023-04-17T15:16:35.760Z,98455.50
2023-04-17T15:19:07.419Z,98456.11
2023-04-17T15:21:38.742Z,98462.08
2023-04-17T15:24:07.776Z,98460.89
2023-04-17T15:26:39.048Z,98465.31
2023-04-17T15:29:07.423Z,98460.31
2023-04-17T15:31:41.414Z,98460.71
2023-04-17T15:34:14.031Z,98457.08
2023-04-17T15:36:42.556Z,98456.39
2023-04-17T15:39:14.738Z,98457.55
2023-04-17T15:41:51.009Z,98461.48
2023-04-17T15:44:21.502Z,98465.55
2023-04-17T15:46:49.668Z,98463.56
2023-04-17T15:49:20.483Z,98466.95
2023-04-17T15:51:52.937Z,98466.10
2023-04-17T15:54:21.317Z,98471.52
2023-04-17T15:56:51.676Z,98472.00
2023-04-17T15:59:22.478Z,98469.97
2023-04-17T16:01:53.249Z,98468.98
2023-04-17T16:04:24.383Z,98474.70
2023-04-17T16:06:52.676Z,98472.48
2023-04-17T16:09:24.654Z,98469.48
2023-04-17T16:11:52.889Z,98476.55
2023-04-17T16:14:36.481Z,98479.84
2023-04-17T16:17:07.476Z,98482.39
2023-04-17T16:19:40.796Z,98481.02
2023-04-17T16:22:11.842Z,98487.63
2023-04-17T16:24:43.899Z,98488.02
2023-04-17T16:27:12.657Z,98489.84
2023-04-17T16:29:41.234Z,98491.99
2023-04-17T16:32:11.821Z,98496.17
2023-04-17T16:34:43.252Z,98498.60
2023-04-17T16:37:12.070Z,98498.95
2023-04-17T16:39:43.510Z,98501.09
2023-04-17T16:42:13.710Z,98504.78
2023-04-17T16:44:42.212Z,98498.30
2023-04-17T16:47:13.862Z,98493.00
2023-04-17T16:49:45.622Z,98501.79
2023-04-17T16:52:20.316Z,98500.42
2023-04-17T16:54:49.556Z,98505.31
2023-04-17T16:57:19.276Z,98510.23
2023-04-17T16:59:50.218Z,98509.56
2023-04-17T17:02:18.707Z,98514.95
2023-04-17T17:04:47.243Z,98513.98
2023-04-17T17:07:17.023Z,98515.42
2023-04-17T17:09:47.441Z,98514.77
2023-04-17T17:12:15.782Z,98516.63
2023-04-17T17:14:43.959Z,98523.16
2023-04-17T17:17:12.582Z,98529.48
2023-04-17T17:19:41.603Z,98535.41
2023-04-17T17:22:11.982Z,98532.96
2023-04-17T17:24:40.516Z,98532.71
2023-04-17T17:27:16.796Z,98532.74
2023-04-17T17:30:00.660Z,98529.52
2023-04-17T17:32:32.384Z,98536.18
2023-04-17T17:35:06.752Z,98534.17
2023-04-17T17:37:36.102Z,98527.42
2023-04-17T17:40:05.634Z,98526.19
2023-04-17T17:42:34.202Z,98522.92
2023-04-17T17:45:04.114Z,98523.74
2023-04-17T17:47:36.011Z,98522.33
2023-04-17T17:50:08.398Z,98525.61
2023-04-17T17:52:38.505Z,98523.84
2023-04-17T17:55:07.167Z,98532.05
2023-04-17T17:57:47.915Z,98534.02
2023-04-17T18:00:20.545Z,98541.15
2023-04-17T18:02:49.323Z,98549.64
2023-04-17T18:05:19.703Z,98551.38
2023-04-17T18:07:48.465Z,98556.40
2023-04-17T18:10:20.068Z,98561.65
2023-04-17T18:12:49.313Z,98566.00
2023-04-17T18:15:18.702Z,98567.59
2023-04-17T18:17:50.745Z,98579.02
2023-04-17T18:20:19.357Z,98577.38
2023-04-17T18:22:47.511Z,98578.02
2023-04-17T18:25:16.045Z,98575.92
2023-04-17T18:27:45.589Z,98576.39
2023-04-17T18:30:21.662Z,98576.46
2023-04-17T18:32:50.067Z,98581.60
2023-04-17T18:35:19.682Z,98582.27
2023-04-17T18:37:50.939Z,98575.88
2023-04-17T18:40:19.432Z,98580.30
2023-04-17T18:42:49.380Z,98582.95
2023-04-17T18:45:20.420Z,98585.57
2023-04-17T18:47:48.738Z,98586.55
2023-04-17T18:50:25.037Z,98589.98
2023-04-17T18:52:57.207Z,98580.88
2023-04-17T18:55:26.169Z,98581.08
2023-04-17T18:57:54.271Z,98582.21
2023-04-17T19:00:25.191Z,98579.23
2023-04-17T19:02:54.651Z,98577.39
2023-04-17T19:05:27.609Z,98575.52
2023-04-17T19:07:56.497Z,98575.05
2023-04-17T19:10:24.826Z,98574.52
2023-04-17T19:12:53.085Z,98573.82
2023-04-17T19:15:22.075Z,98572.20
2023-04-17T19:17:51.129Z,98566.79
2023-04-17T19:20:19.546Z,98567.46
2023-04-17T19:22:49.055Z,98563.16
2023-04-17T19:25:18.771Z,98563.57
2023-04-17T19:27:47.474Z,98564.44
2023-04-17T19:30:15.857Z,98568.67
2023-04-17T19:32:49.530Z,98566.99
2023-04-17T19:35:18.546Z,98564.43
2023-04-17T19:37:49.175Z,98563.73
2023-04-17T19:40:24.322Z,98560.55
2023-04-17T19:42:56.488Z,98560.10
2023-04-17T19:45:26.005Z,98561.97
2023-04-17T19:47:57.178Z,98563.64
2023-04-17T19:50:29.740Z,98561.69
2023-04-17T19:53:00.771Z,98553.31
2023-04-17T19:55:31.529Z,98556.21
2023-04-17T19:58:00.377Z,98553.12
2023-04-17T20:00:29.385Z,98551.02
2023-04-17T20:02:57.937Z,98548.52
2023-04-17T20:05:27.773Z,98543.30
2023-04-17T20:07:57.363Z,98542.77
2023-04-17T20:10:26.437Z,98542.64
2023-04-17T20:12:54.645Z,98540.54
2023-04-17T20:15:23.844Z,98543.44
2023-04-17T20:17:52.639Z,98540.58
2023-04-17T20:20:27.245Z,98543.14
2023-04-17T20:22:56.116Z,98541.86
2023-04-17T20:25:27.461Z,98541.23
2023-04-17T20:27:57.299Z,98536.69
2023-04-17T20:30:26.149Z,98535.50
2023-04-17T20:33:01.568Z,98539.83
2023-04-17T20:35:32.563Z,98541.09
2023-04-17T20:38:00.963Z,98536.84
2023-04-17T20:40:30.186Z,98536.84
2023-04-17T20:43:01.650Z,98534.48
2023-04-17T20:45:32.776Z,98534.41
2023-04-17T20:48:02.081Z,98538.34
2023-04-17T20:50:30.782Z,98540.44
2023-04-17T20:52:59.108Z,98542.09
2023-04-17T20:55:27.344Z,98545.61
2023-04-17T20:57:55.718Z,98544.02
2023-04-17T21:00:24.550Z,98542.27
2023-04-17T21:02:53.959Z,98544.58
2023-04-17T21:05:23.038Z,98542.35
2023-04-17T21:07:53.162Z,98539.61
2023-04-17T21:10:23.312Z,98542.06
2023-04-17T21:12:54.766Z,98541.61
2023-04-17T21:15:22.909Z,98537.35
2023-04-17T21:17:51.875Z,98534.04
2023-04-17T21:20:20.078Z,98533.02
2023-04-17T21:22:49.179Z,98532.17
2023-04-17T21:25:17.471Z,98534.29
2023-04-17T21:27:46.138Z,98534.87
2023-04-17T21:30:14.809Z,98533.96
2023-04-17T21:32:47.868Z,98533.76
2023-04-17T21:35:16.638Z,98533.13
2023-04-17T21:39:31.610Z,98532.34
2023-04-17T21:42:02.207Z,98532.64
2023-04-17T21:44:30.586Z,98526.52
2023-04-17T21:46:59.105Z,98523.77
2023-04-17T21:49:28.647Z,98522.89
2023-04-17T21:51:59.585Z,98524.82
2023-04-17T21:54:29.447Z,98525.45
2023-04-17T21:56:57.855Z,98524.05
2023-04-17T21:59:28.476Z,98522.61
2023-04-17T22:01:57.369Z,98521.56
2023-04-17T22:04:27.222Z,98518.55
2023-04-17T22:06:57.764Z,98513.43
2023-04-17T22:09:28.914Z,98508.60
2023-04-17T22:11:59.932Z,98508.02
2023-04-17T22:14:28.638Z,98508.07
2023-04-17T22:16:56.771Z,98505.59
2023-04-17T22:19:26.235Z,98509.19
2023-04-17T22:21:57.969Z,98508.27
2023-04-17T22:24:28.529Z,98503.91
2023-04-17T22:26:58.939Z,98509.35
2023-04-17T22:29:29.334Z,98507.66
2023-04-17T22:31:57.810Z,98508.05
2023-04-17T22:34:26.038Z,98505.83
2023-04-17T22:36:57.502Z,98504.38
2023-04-17T22:39:26.245Z,98505.61
2023-04-17T22:41:54.751Z,98502.67
2023-04-17T22:44:23.051Z,98502.80
2023-04-17T22:46:51.355Z,98497.96
2023-04-17T22:49:19.935Z,98498.42
2023-04-17T22:51:48.170Z,98494.25
2023-04-17T22:54:22.772Z,98493.05
2023-04-17T22:56:51.612Z,98489.88
2023-04-17T22:59:19.705Z,98479.49
2023-04-17T23:01:47.900Z,98479.58
2023-04-17T23:04:16.535Z,98478.88
2023-04-17T23:06:44.798Z,98475.77
2023-04-17T23:09:17.634Z,98479.86
2023-04-17T23:11:46.115Z,98478.16
2023-04-17T23:14:14.505Z,98478.06
2023-04-17T23:16:45.909Z,98476.46
2023-04-17T23:19:15.021Z,98480.17
2023-04-17T23:21:43.626Z,98478.00
2023-04-17T23:24:11.972Z,98479.05
2023-04-17T23:26:40.244Z,98481.23
2023-04-17T23:29:08.392Z,98474.50
2023-04-17T23:31:38.203Z,98476.23
2023-04-17T23:34:06.380Z,98478.09
2023-04-17T23:36:35.163Z,98477.52
2023-04-17T23:39:05.223Z,98471.26
2023-04-17T23:41:35.561Z,98470.38
2023-04-17T23:44:04.164Z,98469.58
2023-04-17T23:46:33.732Z,98469.39
2023-04-17T23:49:03.264Z,98467.12
2023-04-17T23:51:37.884Z,98466.92
2023-04-17T23:54:08.940Z,98471.36
2023-04-17T23:56:38.034Z,98473.29
2023-04-17T23:59:06.346Z,98469.77
